Hundvaag 1 weather for Jun 2005
Month no. 216
Obs.
Da.
Temp. Dew Point Precip. Wind
Speed
Wind gusts Cloud cover Press. Humidity Wind dir. Sunny OPT
01.06.2005 7,8   0,0 1,8   0 1017,3 72,0 337,5 1 62,5 %
02.06.2005 6,7   0,0 0,9   0 1009,8 76,0 90,0 1 60,0 %
03.06.2005 9,4   2,6 1,8   0 1005,4 82,0 90,0   62,5 %
04.06.2005 8,9   0,5 1,3   0 1003,4 89,0   1 62,5 %
05.06.2005 6,7   0,6 4,0   2 1005,8 81,0 337,5   62,5 %
06.06.2005 6,1   0,0 4,5   5 1013,5 68,0 0,0 1 70,0 %
07.06.2005 6,1   0,0 4,0   10 1027,8 67,0 337,5 1 82,5 %
08.06.2005 6,1   0,0 0,9   2 1034,2 73,0     65,0 %
09.06.2005 10,0   0,3 1,3   0 1023,7 89,0 135,0 1 65,0 %
10.06.2005 7,8   1,5 4,5   2 1016,6 73,0 0,0   65,0 %
11.06.2005 6,7   0,0 3,1   4 1008,5 72,0 315,0 1 70,0 %
12.06.2005 8,9   1,5 1,3   3 1000,7 79,0     70,0 %
13.06.2005 9,4   0,0 1,8   3 1002,4 72,0 157,5 1 70,0 %
14.06.2005 11,8   0,0 3,1   0 1005,1 74,0 135,0 1 65,0 %
15.06.2005 11,8   9,5 4,0   7 1013,2 71,0 202,5   72,5 %
16.06.2005 14,1   0,0 4,5   10 1017,3 74,0 157,5 1 90,0 %
17.06.2005 10,0   1,0 2,7   0 1016,6 84,0 202,5   65,0 %
18.06.2005 9,4   2,0 0,9   3 1025,7 81,0 337,5   70,0 %
19.06.2005 10,6   0,0 1,3   4 1019,6 77,0   1 75,0 %
20.06.2005 13,3   0,0 2,2   4 1013,9 65,0 157,5 1 77,5 %
21.06.2005 11,1   3,5 1,3   3 1014,2 88,0 315,0   70,0 %
22.06.2005 11,1   3,3 2,2   3 1014,6 82,0 270,0   70,0 %
23.06.2005 13,3   0,0 3,1   4 1015,6 77,0 180,0 1 77,5 %
24.06.2005 11,1   0,0 1,8   4 1016,9 83,0 225,0 1 75,0 %
25.06.2005 8,9   0,0 4,5   4 1018,3 74,0 0,0 1 70,0 %
26.06.2005 9,4   0,0 2,7   4 1023,4 74,0 315,0 1 72,5 %
27.06.2005 10,6   8,1 2,7   0 1018,6 83,0 202,5   60,0 %
28.06.2005 9,4   0,0 2,2   4 1017,3 76,0 337,5 1 72,5 %
29.06.2005 11,7   0,0 1,8   4 1013,5 73,0 337,5 1 75,0 %
30.06.2005 10,6   0,0 1,8   4 1010,5 59,0 315,0 1 75,0 %
                       
Avrg/Sum 9,6   34,4 2,5   3,1 1014,8 76,3 211,2 19 70,0 %